createdAt,value
2018-05-15T00:00:07.592Z,57.00
2018-05-15T00:02:36.427Z,57.30
2018-05-15T00:05:04.965Z,56.70
2018-05-15T00:07:33.558Z,56.20
2018-05-15T00:10:01.742Z,56.00
2018-05-15T00:12:29.926Z,56.30
2018-05-15T00:14:58.448Z,56.90
2018-05-15T00:17:27.438Z,57.40
2018-05-15T00:19:56.432Z,56.60
2018-05-15T00:22:25.027Z,56.00
2018-05-15T00:24:53.483Z,55.20
2018-05-15T00:27:22.310Z,56.30
2018-05-15T00:29:51.147Z,54.40
2018-05-15T00:32:19.550Z,54.10
2018-05-15T00:34:47.734Z,53.90
2018-05-15T00:37:16.830Z,54.10
2018-05-15T00:39:45.647Z,53.90
2018-05-15T00:42:14.312Z,54.00
2018-05-15T00:44:43.455Z,54.00
2018-05-15T00:47:11.989Z,54.70
2018-05-15T00:49:40.374Z,53.30
2018-05-15T00:52:09.889Z,53.30
2018-05-15T00:54:38.402Z,53.10
2018-05-15T00:57:06.822Z,53.40
2018-05-15T00:59:35.453Z,53.60
2018-05-15T01:02:05.427Z,53.50
2018-05-15T01:04:33.871Z,52.90
2018-05-15T01:07:02.284Z,52.20
2018-05-15T01:09:31.436Z,52.10
2018-05-15T01:12:00.275Z,50.90
2018-05-15T01:14:28.905Z,51.40
2018-05-15T01:16:58.896Z,51.80
2018-05-15T01:19:27.314Z,52.20
2018-05-15T01:21:55.725Z,51.80
2018-05-15T01:24:24.642Z,52.20
2018-05-15T01:26:53.728Z,52.50
2018-05-15T01:29:21.894Z,52.90
2018-05-15T01:31:50.539Z,52.30
2018-05-15T01:34:19.096Z,53.00
2018-05-15T01:36:47.726Z,52.00
2018-05-15T01:39:16.878Z,52.60
2018-05-15T01:41:45.299Z,52.60
2018-05-15T01:44:14.531Z,52.80
2018-05-15T01:46:43.151Z,52.30
2018-05-15T01:49:11.367Z,52.50
2018-05-15T01:51:40.543Z,52.00
2018-05-15T01:54:08.718Z,51.80
2018-05-15T01:56:39.470Z,51.70
2018-05-15T01:59:07.680Z,51.70
2018-05-15T02:01:36.847Z,51.70
2018-05-15T02:04:05.477Z,52.10
2018-05-15T02:06:33.897Z,52.30
2018-05-15T02:09:02.528Z,52.90
2018-05-15T02:11:30.675Z,52.70
2018-05-15T02:14:00.207Z,51.90
2018-05-15T02:16:29.030Z,52.40
2018-05-15T02:18:58.302Z,52.30
2018-05-15T02:21:26.687Z,52.30
2018-05-15T02:23:54.876Z,51.90
2018-05-15T02:26:23.461Z,52.50
2018-05-15T02:28:54.378Z,52.00
2018-05-15T02:31:23.021Z,52.50
2018-05-15T02:33:53.113Z,52.80
2018-05-15T02:36:22.250Z,53.90
2018-05-15T02:38:51.200Z,53.50
2018-05-15T02:41:19.393Z,53.30
2018-05-15T02:43:48.156Z,53.40
2018-05-15T02:46:16.299Z,52.70
2018-05-15T02:48:45.402Z,53.30
2018-05-15T02:51:13.823Z,53.50
2018-05-15T02:53:42.989Z,53.70
2018-05-15T02:56:11.619Z,53.90
2018-05-15T02:58:39.768Z,53.90
2018-05-15T03:01:08.323Z,53.80
2018-05-15T03:03:36.988Z,54.10
2018-05-15T03:06:05.620Z,54.20
2018-05-15T03:08:33.791Z,54.30
2018-05-15T03:11:02.251Z,54.40
2018-05-15T03:13:30.399Z,54.40
2018-05-15T03:15:58.989Z,54.70
2018-05-15T03:18:28.245Z,55.40
2018-05-15T03:20:57.711Z,55.30
2018-05-15T03:23:26.543Z,55.30
2018-05-15T03:25:55.152Z,55.40
2018-05-15T03:28:26.198Z,55.60
2018-05-15T03:30:54.378Z,55.60
2018-05-15T03:33:22.554Z,56.00
2018-05-15T03:35:51.059Z,56.60
2018-05-15T03:38:20.210Z,56.40
2018-05-15T03:40:48.387Z,55.70
2018-05-15T03:43:16.614Z,56.20
2018-05-15T03:45:45.226Z,56.10
2018-05-15T03:48:13.435Z,55.30
2018-05-15T03:50:41.626Z,55.80
2018-05-15T03:53:10.216Z,55.80
2018-05-15T03:55:39.042Z,56.00
2018-05-15T03:58:07.475Z,56.00
2018-05-15T04:00:48.121Z,57.40
2018-05-15T04:03:28.851Z,57.40
2018-05-15T04:06:09.406Z,56.60
2018-05-15T04:08:38.470Z,56.40
2018-05-15T04:11:08.016Z,56.30
2018-05-15T04:13:36.294Z,56.20
2018-05-15T04:16:05.162Z,56.20
2018-05-15T04:18:34.536Z,56.60
2018-05-15T04:21:02.692Z,56.50
2018-05-15T04:23:31.678Z,56.80
2018-05-15T04:26:00.845Z,56.50
2018-05-15T04:28:29.530Z,58.00
2018-05-15T04:30:58.001Z,57.20
2018-05-15T04:33:26.391Z,57.00
2018-05-15T04:35:54.624Z,57.60
2018-05-15T04:38:23.473Z,57.00
2018-05-15T04:40:51.694Z,57.00
2018-05-15T04:43:20.318Z,57.30
2018-05-15T04:45:49.467Z,56.90
2018-05-15T04:48:17.892Z,56.40
2018-05-15T04:50:46.483Z,57.00
2018-05-15T04:53:15.671Z,55.90
2018-05-15T04:55:44.173Z,56.00
2018-05-15T04:58:13.251Z,56.60
2018-05-15T05:00:41.450Z,56.40
2018-05-15T05:03:10.426Z,56.30
2018-05-15T05:05:39.435Z,56.40
2018-05-15T05:08:07.643Z,55.80
2018-05-15T05:10:36.254Z,56.00
2018-05-15T05:13:04.674Z,56.80
2018-05-15T05:15:34.178Z,57.30
2018-05-15T05:18:02.649Z,57.40
2018-05-15T05:20:31.021Z,57.50
2018-05-15T05:23:00.310Z,56.30
2018-05-15T05:25:30.266Z,55.70
2018-05-15T05:27:58.466Z,55.70
2018-05-15T05:30:26.671Z,55.80
2018-05-15T05:32:55.830Z,54.60
2018-05-15T05:35:25.205Z,54.80
2018-05-15T05:37:53.347Z,54.50
2018-05-15T05:40:22.047Z,54.30
2018-05-15T05:42:50.677Z,53.70
2018-05-15T05:45:19.097Z,53.20
2018-05-15T05:47:48.772Z,53.80
2018-05-15T05:50:17.507Z,53.10
2018-05-15T05:52:46.546Z,53.50
2018-05-15T05:55:14.735Z,53.50
2018-05-15T05:57:43.471Z,53.40
2018-05-15T06:00:12.539Z,53.80
2018-05-15T06:02:40.719Z,52.70
2018-05-15T06:05:09.391Z,53.30
2018-05-15T06:07:37.594Z,52.40
2018-05-15T06:10:06.574Z,52.00
2018-05-15T06:12:36.317Z,52.00
2018-05-15T06:15:04.716Z,51.70
2018-05-15T06:17:33.379Z,51.40
2018-05-15T06:20:01.974Z,51.90
2018-05-15T06:22:30.415Z,50.90
2018-05-15T06:24:58.815Z,52.20
2018-05-15T06:27:27.303Z,51.80
2018-05-15T06:29:55.639Z,51.40
2018-05-15T06:32:24.686Z,50.80
2018-05-15T06:34:53.267Z,51.30
2018-05-15T06:37:21.862Z,52.00
2018-05-15T06:39:50.318Z,51.20
2018-05-15T06:42:19.771Z,50.40
2018-05-15T06:44:48.396Z,49.60
2018-05-15T06:47:16.458Z,50.00
2018-05-15T06:49:44.931Z,49.60
2018-05-15T06:52:13.364Z,50.10
2018-05-15T06:54:41.514Z,49.60
2018-05-15T06:57:10.207Z,49.60
2018-05-15T06:59:38.480Z,48.40
2018-05-15T07:02:07.758Z,48.80
2018-05-15T07:04:36.410Z,47.80
2018-05-15T07:07:05.249Z,47.00
2018-05-15T07:09:34.182Z,47.50
2018-05-15T07:12:03.854Z,46.80
2018-05-15T07:14:32.498Z,47.30
2018-05-15T07:17:01.128Z,46.80
2018-05-15T07:19:30.542Z,46.30
2018-05-15T07:22:00.360Z,46.10
2018-05-15T07:24:28.540Z,46.60
2018-05-15T07:26:57.218Z,47.90
2018-05-15T07:29:26.354Z,45.80
2018-05-15T07:31:55.507Z,46.20
2018-05-15T07:34:24.882Z,45.50
2018-05-15T07:36:53.512Z,46.40
2018-05-15T07:39:22.827Z,47.90
2018-05-15T07:41:51.399Z,45.20
2018-05-15T07:44:19.550Z,44.70
2018-05-15T07:46:47.890Z,45.50
2018-05-15T07:49:17.289Z,45.50
2018-05-15T07:51:46.322Z,45.50
2018-05-15T07:54:14.863Z,44.80
2018-05-15T07:56:43.287Z,44.50
2018-05-15T07:59:11.431Z,45.40
2018-05-15T08:01:39.618Z,46.60
2018-05-15T08:04:08.965Z,43.30
2018-05-15T08:06:37.463Z,43.80
2018-05-15T08:09:05.912Z,43.60
2018-05-15T08:11:35.782Z,43.80
2018-05-15T08:14:04.426Z,43.10
2018-05-15T08:16:33.270Z,45.10
2018-05-15T08:19:02.403Z,45.60
2018-05-15T08:21:30.839Z,43.90
2018-05-15T08:23:59.365Z,44.60
2018-05-15T08:26:27.514Z,43.20
2018-05-15T08:28:55.698Z,42.30
2018-05-15T08:31:24.279Z,42.40
2018-05-15T08:33:52.459Z,41.80
2018-05-15T08:36:20.948Z,42.30
2018-05-15T08:38:49.307Z,42.00
2018-05-15T08:41:18.299Z,43.20
2018-05-15T08:43:47.569Z,42.80
2018-05-15T08:46:16.603Z,42.80
2018-05-15T08:48:45.039Z,42.50
2018-05-15T08:51:13.238Z,42.10
2018-05-15T08:53:41.658Z,41.50
2018-05-15T08:56:10.215Z,41.90
2018-05-15T08:58:40.067Z,39.50
2018-05-15T09:01:08.903Z,39.40
2018-05-15T09:03:37.551Z,38.80
2018-05-15T09:06:06.080Z,38.50
2018-05-15T09:08:35.122Z,38.30
2018-05-15T09:11:04.306Z,38.80
2018-05-15T09:13:33.938Z,38.20
2018-05-15T09:16:02.372Z,38.10
2018-05-15T09:18:30.792Z,36.60
2018-05-15T09:20:59.123Z,37.10
2018-05-15T09:23:28.370Z,37.40
2018-05-15T09:25:57.795Z,37.30
2018-05-15T09:28:27.282Z,38.20
2018-05-15T09:30:56.435Z,36.50
2018-05-15T09:33:24.618Z,36.70
2018-05-15T09:35:53.699Z,36.80
2018-05-15T09:38:22.341Z,36.20
2018-05-15T09:40:50.867Z,35.60
2018-05-15T09:43:45.698Z,37.00
2018-05-15T09:46:14.238Z,36.00
2018-05-15T09:48:42.419Z,34.20
2018-05-15T09:51:10.939Z,35.70
2018-05-15T09:53:39.503Z,35.40
2018-05-15T09:56:08.446Z,35.70
2018-05-15T09:58:37.038Z,35.00
2018-05-15T10:01:05.903Z,37.20
2018-05-15T10:03:34.545Z,37.30
2018-05-15T10:06:03.072Z,38.70
2018-05-15T10:08:31.666Z,37.20
2018-05-15T10:11:00.123Z,36.50
2018-05-15T10:13:28.545Z,35.40
2018-05-15T10:15:57.891Z,36.00
2018-05-15T10:18:26.326Z,35.40
2018-05-15T10:20:55.168Z,35.60
2018-05-15T10:23:23.796Z,38.10
2018-05-15T10:25:52.425Z,34.20
2018-05-15T10:28:21.475Z,32.80
2018-05-15T10:30:49.883Z,34.90
2018-05-15T10:33:19.360Z,35.00
2018-05-15T10:35:47.887Z,33.00
2018-05-15T10:38:16.515Z,32.80
2018-05-15T10:40:45.564Z,32.70
2018-05-15T10:43:14.616Z,32.80
2018-05-15T10:45:43.035Z,33.70
2018-05-15T10:48:11.859Z,34.20
2018-05-15T10:50:40.262Z,33.00
2018-05-15T10:53:08.439Z,32.50
2018-05-15T10:55:38.063Z,33.20
2018-05-15T10:58:06.254Z,33.20
2018-05-15T11:00:34.882Z,32.70
2018-05-15T11:03:03.445Z,34.20
2018-05-15T11:05:31.591Z,33.90
2018-05-15T11:08:00.064Z,32.90
2018-05-15T11:10:29.223Z,32.70
2018-05-15T11:12:57.642Z,32.60
2018-05-15T11:15:27.112Z,32.10
2018-05-15T11:17:55.282Z,33.10
2018-05-15T11:20:35.661Z,33.00
2018-05-15T11:23:15.986Z,31.60
2018-05-15T11:25:44.130Z,31.20
2018-05-15T11:28:13.027Z,31.40
2018-05-15T11:30:41.206Z,32.20
2018-05-15T11:33:10.119Z,31.90
2018-05-15T11:35:38.325Z,31.50
2018-05-15T11:38:06.819Z,31.80
2018-05-15T11:40:35.456Z,34.40
2018-05-15T11:43:03.599Z,32.10
2018-05-15T11:45:32.547Z,32.30
2018-05-15T11:48:01.628Z,32.30
2018-05-15T11:50:30.581Z,31.40
2018-05-15T11:53:00.280Z,32.00
2018-05-15T11:55:28.889Z,32.10
2018-05-15T11:57:57.333Z,31.40
2018-05-15T12:00:25.474Z,31.30
2018-05-15T12:02:54.067Z,32.00
2018-05-15T12:05:22.666Z,31.60
2018-05-15T12:07:51.223Z,32.00
2018-05-15T12:10:19.379Z,31.80
2018-05-15T12:12:48.548Z,33.20
2018-05-15T12:15:17.310Z,31.90
2018-05-15T12:17:45.744Z,30.80
2018-05-15T12:20:14.883Z,32.20
2018-05-15T12:22:43.318Z,31.90
2018-05-15T12:25:11.522Z,33.10
2018-05-15T12:27:43.293Z,32.40
2018-05-15T12:30:10.148Z,30.90
2018-05-15T12:32:39.287Z,30.90
2018-05-15T12:35:09.977Z,31.20
2018-05-15T12:37:39.058Z,31.20
2018-05-15T12:40:07.250Z,30.90
2018-05-15T12:42:35.806Z,31.10
2018-05-15T12:45:04.951Z,31.70
2018-05-15T12:47:33.483Z,31.30
2018-05-15T12:50:02.292Z,33.60
2018-05-15T12:52:30.744Z,32.30
2018-05-15T12:55:00.105Z,32.30
2018-05-15T12:57:28.294Z,32.30
2018-05-15T12:59:56.470Z,31.10
2018-05-15T13:02:27.667Z,31.00
2018-05-15T13:04:56.155Z,31.00
2018-05-15T13:07:24.339Z,32.30
2018-05-15T13:09:54.251Z,30.70
2018-05-15T13:12:22.431Z,31.20
2018-05-15T13:14:51.534Z,32.40
2018-05-15T13:17:20.012Z,33.40
2018-05-15T13:19:49.015Z,32.40
2018-05-15T13:22:17.647Z,33.00
2018-05-15T13:24:46.371Z,33.50
2018-05-15T13:27:14.802Z,33.20
2018-05-15T13:29:43.433Z,32.20
2018-05-15T13:32:11.854Z,31.70
2018-05-15T13:34:41.811Z,32.40
2018-05-15T13:37:09.995Z,30.10
2018-05-15T13:39:38.990Z,30.40
2018-05-15T13:42:08.043Z,29.60
2018-05-15T13:44:36.871Z,29.20
2018-05-15T13:47:05.411Z,29.90
2018-05-15T13:49:33.935Z,30.30
2018-05-15T13:52:02.092Z,30.00
2018-05-15T13:54:31.498Z,31.10
2018-05-15T13:57:00.663Z,31.10
2018-05-15T13:59:31.121Z,30.80
2018-05-15T14:02:00.102Z,30.90
2018-05-15T14:04:28.371Z,31.60
2018-05-15T14:06:56.551Z,30.60
2018-05-15T14:09:25.137Z,30.30
2018-05-15T14:11:54.235Z,31.00
2018-05-15T14:14:23.443Z,30.80
2018-05-15T14:16:52.301Z,30.80
2018-05-15T14:19:20.527Z,29.60
2018-05-15T14:21:49.053Z,32.10
2018-05-15T14:24:18.100Z,29.80
2018-05-15T14:26:46.614Z,29.90
2018-05-15T14:29:15.151Z,30.20
2018-05-15T14:31:45.027Z,30.10
2018-05-15T14:34:13.770Z,30.20
2018-05-15T14:36:42.278Z,30.20
2018-05-15T14:39:10.809Z,31.00
2018-05-15T14:44:44.096Z,30.80
2018-05-15T14:47:14.066Z,28.80
2018-05-15T14:49:43.153Z,28.80
2018-05-15T14:52:11.559Z,27.60
2018-05-15T14:54:40.209Z,26.40
2018-05-15T14:57:08.800Z,26.90
2018-05-15T14:59:37.976Z,25.10
2018-05-15T15:02:07.139Z,25.90
2018-05-15T15:04:36.126Z,26.10
2018-05-15T15:07:04.571Z,25.80
2018-05-15T15:09:33.342Z,26.10
2018-05-15T15:12:02.168Z,26.50
2018-05-15T15:14:30.357Z,27.50
2018-05-15T15:16:58.990Z,28.10
2018-05-15T15:19:27.198Z,28.90
2018-05-15T15:21:55.761Z,28.90
2018-05-15T15:24:23.930Z,29.40
2018-05-15T15:26:53.006Z,28.50
2018-05-15T15:29:22.002Z,26.30
2018-05-15T15:31:50.182Z,25.10
2018-05-15T15:34:19.315Z,24.80
2018-05-15T15:36:47.818Z,26.10
2018-05-15T15:39:16.003Z,24.50
2018-05-15T15:41:45.497Z,24.90
2018-05-15T15:44:14.127Z,24.00
2018-05-15T15:46:43.212Z,23.60
2018-05-15T15:49:11.842Z,23.80
2018-05-15T15:51:39.980Z,24.60
2018-05-15T15:54:08.931Z,23.70
2018-05-15T15:56:37.926Z,23.30
2018-05-15T15:59:06.123Z,23.70
2018-05-15T16:01:34.299Z,23.70
2018-05-15T16:04:03.061Z,24.00
2018-05-15T16:06:31.130Z,22.10
2018-05-15T16:09:00.088Z,23.40
2018-05-15T16:11:28.682Z,23.30
2018-05-15T16:13:57.099Z,23.20
2018-05-15T16:16:25.302Z,22.80
2018-05-15T16:18:54.358Z,23.50
2018-05-15T16:21:24.556Z,23.80
2018-05-15T16:23:53.059Z,23.80
2018-05-15T16:26:21.923Z,25.10
2018-05-15T16:28:51.059Z,24.30
2018-05-15T16:31:19.704Z,24.10
2018-05-15T16:33:47.976Z,24.60
2018-05-15T16:36:16.739Z,23.50
2018-05-15T16:38:44.926Z,25.00
2018-05-15T16:41:13.142Z,26.40
2018-05-15T16:43:41.715Z,24.20
2018-05-15T16:46:10.334Z,25.40
2018-05-15T16:48:38.859Z,25.00
2018-05-15T16:51:07.283Z,25.40
2018-05-15T16:53:37.061Z,26.40
2018-05-15T16:56:05.258Z,26.30
2018-05-15T16:58:33.413Z,26.40
2018-05-15T17:01:02.350Z,27.20
2018-05-15T17:03:31.295Z,27.50
2018-05-15T17:06:01.046Z,27.90
2018-05-15T17:08:29.243Z,29.20
2018-05-15T17:10:57.743Z,28.30
2018-05-15T17:13:26.303Z,28.50
2018-05-15T17:15:54.733Z,28.90
2018-05-15T17:18:22.862Z,29.20
2018-05-15T17:20:52.200Z,29.40
2018-05-15T17:23:20.622Z,29.40
2018-05-15T17:25:49.252Z,29.30
2018-05-15T17:28:18.079Z,29.70
2018-05-15T17:30:46.257Z,29.70
2018-05-15T17:33:14.835Z,29.20
2018-05-15T17:35:43.355Z,28.50
2018-05-15T17:38:12.386Z,29.00
2018-05-15T17:40:40.994Z,29.30
2018-05-15T17:43:10.185Z,29.80
2018-05-15T17:45:38.711Z,29.80
2018-05-15T17:48:07.747Z,30.10
2018-05-15T17:50:36.179Z,30.50
2018-05-15T17:53:05.360Z,30.10
2018-05-15T17:55:33.962Z,29.80
2018-05-15T17:58:03.082Z,30.30
2018-05-15T18:03:08.959Z,30.40
2018-05-15T18:05:38.255Z,30.40
2018-05-15T18:08:07.230Z,30.20
2018-05-15T18:10:36.383Z,30.80
2018-05-15T18:13:04.954Z,30.20
2018-05-15T18:15:34.910Z,31.00
2018-05-15T18:18:03.051Z,31.00
2018-05-15T18:20:32.154Z,31.30
2018-05-15T18:23:01.322Z,31.40
2018-05-15T18:25:29.811Z,32.00
2018-05-15T18:27:58.987Z,32.20
2018-05-15T18:30:27.422Z,32.40
2018-05-15T18:32:56.111Z,33.10
2018-05-15T18:35:24.194Z,33.20
2018-05-15T18:37:52.647Z,33.70
2018-05-15T18:40:21.871Z,34.10
2018-05-15T18:42:50.991Z,34.10
2018-05-15T18:45:19.198Z,34.00
2018-05-15T18:47:47.699Z,34.80
2018-05-15T18:50:16.255Z,35.00
2018-05-15T18:52:44.391Z,35.70
2018-05-15T18:55:13.345Z,36.00
2018-05-15T18:57:41.818Z,35.90
2018-05-15T19:00:10.985Z,35.70
2018-05-15T19:02:39.126Z,35.70
2018-05-15T19:05:08.072Z,37.10
2018-05-15T19:07:37.076Z,36.70
2018-05-15T19:10:05.304Z,36.60
2018-05-15T19:12:34.552Z,37.70
2018-05-15T19:15:03.251Z,36.90
2018-05-15T19:17:31.708Z,37.60
2018-05-15T19:19:59.927Z,37.10
2018-05-15T19:22:29.356Z,37.50
2018-05-15T19:24:57.979Z,37.80
2018-05-15T19:27:26.297Z,38.40
2018-05-15T19:29:54.754Z,38.70
2018-05-15T19:32:41.963Z,38.60
2018-05-15T19:35:10.142Z,39.20
2018-05-15T19:37:38.568Z,39.90
2018-05-15T19:40:12.771Z,41.50
2018-05-15T19:42:40.922Z,40.90
2018-05-15T19:45:09.142Z,41.50
2018-05-15T19:47:38.773Z,42.50
2018-05-15T19:50:07.912Z,42.50
2018-05-15T19:52:36.090Z,42.80
2018-05-15T19:55:04.661Z,43.50
2018-05-15T19:57:33.073Z,44.70
2018-05-15T20:00:01.491Z,45.40
2018-05-15T20:02:30.643Z,46.50
2018-05-15T20:05:00.645Z,46.70
2018-05-15T20:07:29.678Z,46.70
2018-05-15T20:09:57.855Z,46.60
2018-05-15T20:12:26.034Z,46.50
2018-05-15T20:14:56.071Z,47.30
2018-05-15T20:17:24.526Z,47.70
2018-05-15T20:19:53.122Z,47.50
2018-05-15T20:22:21.996Z,48.10
2018-05-15T20:24:50.162Z,48.40
2018-05-15T20:27:18.385Z,48.40
2018-05-15T20:29:47.051Z,48.90
2018-05-15T20:32:15.472Z,49.90
2018-05-15T20:34:44.897Z,51.10
2018-05-15T20:37:13.671Z,51.10
2018-05-15T20:39:42.247Z,51.20
2018-05-15T20:42:10.920Z,51.40
2018-05-15T20:44:39.026Z,52.40
2018-05-15T20:47:08.075Z,51.60
2018-05-15T20:49:37.240Z,51.00
2018-05-15T20:52:06.074Z,49.40
2018-05-15T20:54:34.919Z,48.90
2018-05-15T20:57:03.444Z,49.10
2018-05-15T20:59:32.596Z,48.20
2018-05-15T21:02:01.424Z,48.60
2018-05-15T21:04:29.961Z,48.90
2018-05-15T21:06:58.109Z,47.30
2018-05-15T21:09:26.594Z,47.30
2018-05-15T21:11:55.121Z,46.80
2018-05-15T21:14:23.648Z,47.40
2018-05-15T21:16:52.240Z,47.70
2018-05-15T21:19:20.698Z,48.20
2018-05-15T21:21:48.961Z,48.40
2018-05-15T21:24:18.052Z,48.20
2018-05-15T21:26:46.484Z,48.20
2018-05-15T21:29:15.218Z,48.70
2018-05-15T21:31:43.743Z,49.00
2018-05-15T21:34:12.692Z,49.20
2018-05-15T21:36:41.668Z,49.00
2018-05-15T21:39:10.051Z,48.20
2018-05-15T21:41:38.215Z,48.80
2018-05-15T21:44:06.406Z,48.40
2018-05-15T21:46:34.899Z,49.00
2018-05-15T21:49:03.528Z,49.00
2018-05-15T21:51:32.054Z,49.00
2018-05-15T21:54:00.962Z,48.90
2018-05-15T21:56:29.626Z,48.80
2018-05-15T21:58:58.011Z,49.00
2018-05-15T22:01:26.458Z,49.50
2018-05-15T22:03:55.818Z,50.60
2018-05-15T22:06:24.658Z,50.20
2018-05-15T22:08:53.055Z,50.70
2018-05-15T22:11:21.710Z,51.10
2018-05-15T22:14:02.781Z,51.60
2018-05-15T22:16:44.125Z,51.50
2018-05-15T22:19:25.560Z,52.20
2018-05-15T22:22:06.173Z,51.80
2018-05-15T22:24:35.112Z,52.40
2018-05-15T22:27:03.642Z,53.30
2018-05-15T22:29:31.788Z,54.10
2018-05-15T22:32:00.779Z,53.60
2018-05-15T22:34:28.961Z,53.80
2018-05-15T22:36:58.147Z,54.40
2018-05-15T22:39:26.331Z,54.30
2018-05-15T22:41:55.523Z,54.00
2018-05-15T22:44:23.819Z,53.80
2018-05-15T22:46:52.435Z,54.40
2018-05-15T22:49:20.828Z,54.50
2018-05-15T22:51:49.733Z,54.80
2018-05-15T22:54:18.743Z,55.10
2018-05-15T22:56:46.926Z,54.90
2018-05-15T22:59:15.906Z,55.80
2018-05-15T23:01:45.086Z,55.00
2018-05-15T23:04:14.123Z,55.00
2018-05-15T23:06:42.295Z,54.70
2018-05-15T23:09:10.872Z,55.50
2018-05-15T23:11:40.018Z,55.70
2018-05-15T23:14:08.202Z,55.50
2018-05-15T23:16:37.796Z,56.30
2018-05-15T23:19:06.961Z,55.50
2018-05-15T23:21:35.553Z,55.60
2018-05-15T23:24:04.115Z,55.90
2018-05-15T23:26:32.640Z,56.30
2018-05-15T23:29:01.062Z,55.70
2018-05-15T23:31:30.319Z,56.20
2018-05-15T23:34:00.306Z,56.20
2018-05-15T23:36:28.475Z,55.90
2018-05-15T23:38:58.074Z,56.20
2018-05-15T23:41:26.326Z,56.80
2018-05-15T23:43:55.877Z,57.00
2018-05-15T23:46:24.014Z,56.80
2018-05-15T23:48:52.571Z,57.30
2018-05-15T23:51:21.135Z,57.30
2018-05-15T23:53:50.487Z,57.80
2018-05-15T23:56:20.593Z,57.90
2018-05-15T23:58:48.977Z,58.10
